メインページ
METAR-TAF:

METAR-TAF

空港 :

アルジェ, アルジェリア

ウアリ・ブーメディアン空港

緯度: 36-43N, 経度: 003-15E, 海抜: 25m

現時点の気象観測

当レポートは18分前の15:30(UTC)に作成
北東の風 16kt
気温 18°C
湿度 83%
気圧 1020 hPa
視程10km以上
高度2000ftの雲は散在している, 塔状積雲.
高度2600ftの雲はほとんどない, 積乱雲.

METAR: DAAG 191530Z 05016KT 9999 SCT020TCU FEW026CB 18/15 Q1020

時間: 16:48 (15:48 UTC)

予報

当レポートは4時間48分前の11:00(UTC)に作成
予報は19日の 12時(UTC)から 20日の 12時(UTC)まで有効
北東の風 12kt
視程10km以上
高度2000ftの雲はほとんどない
確率 40% :
19日の 12時(UTC)から 19日の 18時(UTC)まで一時的に
高度2300ftの雲はほとんどない, 塔状積雲.
19日の 17時(UTC)から 19日の 20時(UTC)まで徐々に
変向風 2kt
20日の 00時(UTC)から 20日の 07時(UTC)まで一時的に
視程: 3000m
高度1500ftの千切れ雲あり
確率 40%
20日の 01時(UTC)から 20日の 06時(UTC)まで
視程: 0600m
高度800ftの千切れ雲あり

TAF: DAAG 191100Z 1912/2012 04012KT 9999 FEW020 PROB40 TEMPO 1912/1918 FEW023TCU BECMG 1917/1920 VRB02KT TEMPO 2000/2007 3000 BR BKN015 PROB40 2001/2006 0600 FG BKN008

4,000以上の空港の気象観測と天気予報(METAR報とTAF報)

利用可能な観測所は地図上に黄色い丸と赤い丸で示す。

丸の上にカーソルを重ねると観測所名を参照できる。

次にクリックすると気象観測と天気予報を参照できる。

マップの切り替え:黒色「×」印の緑ボタンをクリックして拡大、「-」印の緑ボタンをクリックして縮小、緑色の三角印をクリックして隣りの地図に切り替え


METAR-TAF: